Time;durP1;ratioP1;P1;durP2;ratioP2;P2;SDS_P1;SDS_P2;PMS_P1;PMS_P2;Temp;Humidity;BMP_temperature;BMP_pressure;BME280_temperature;BME280_humidity;BME280_pressure;Samples;Min_cycle;Max_cycle;Signal;HPM_P1;HPM_P2
2022/05/24 00:00:20;;;;;;;5.88;5.03;;;;;;;20.95;54.94;94563.59;5066141;28;20206;-74
2022/05/24 00:02:47;;;;;;;5.07;4.53;;;;;;;20.82;54.81;94557.75;5065664;28;20209;-74
2022/05/24 00:05:14;;;;;;;10.70;6.00;;;;;;;20.51;55.89;94566.38;5067004;28;20676;-75
2022/05/24 00:07:41;;;;;;;8.68;7.78;;;;;;;20.23;56.90;94562.56;5065993;28;20263;-74
2022/05/24 00:10:12;;;;;;;9.70;6.18;;;;;;;20.17;57.30;94561.28;5065282;28;20251;-74
2022/05/24 00:12:40;;;;;;;5.60;4.65;;;;;;;19.91;57.21;94544.44;5066477;28;20210;-75
2022/05/24 00:15:23;;;;;;;8.88;5.22;;;;;;;19.39;58.99;94556.19;5065921;28;20231;-77
2022/05/24 00:17:54;;;;;;;7.45;5.40;;;;;;;19.30;58.73;94544.78;5064436;28;20780;-75
2022/05/24 00:20:23;;;;;;;5.07;4.60;;;;;;;18.73;60.21;94560.28;5065660;28;20320;-73
2022/05/24 00:22:49;;;;;;;6.07;4.72;;;;;;;18.55;60.58;94571.91;5065706;28;20230;-72
2022/05/24 00:25:16;;;;;;;4.60;4.30;;;;;;;18.44;60.67;94566.69;5065220;28;20302;-74
2022/05/24 00:27:45;;;;;;;4.60;4.30;;;;;;;18.62;59.89;94562.81;5066360;28;20209;-77
2022/05/24 00:30:15;;;;;;;4.13;3.65;;;;;;;18.40;59.73;94575.56;5066345;28;20217;-75
2022/05/24 00:32:42;;;;;;;3.00;2.80;;;;;;;18.03;60.05;94570.47;5063630;28;20248;-75
2022/05/24 00:35:10;;;;;;;3.47;3.08;;;;;;;17.74;60.70;94571.69;5064940;28;20269;-73
2022/05/24 00:37:38;;;;;;;6.10;3.25;;;;;;;17.92;60.04;94565.25;5066328;28;20220;-74
2022/05/24 00:40:07;;;;;;;3.50;3.22;;;;;;;17.87;60.10;94554.47;5066247;28;20228;-76
2022/05/24 00:42:36;;;;;;;3.35;3.08;;;;;;;17.89;60.22;94565.47;5061276;28;20637;-75
2022/05/24 00:45:12;;;;;;;3.20;2.90;;;;;;;18.05;59.57;94566.03;5060894;28;20229;-78
2022/05/24 00:47:42;;;;;;;3.55;3.10;;;;;;;18.12;59.01;94569.81;5063273;28;20214;-76
2022/05/24 00:50:13;;;;;;;3.80;2.80;;;;;;;18.20;59.23;94582.94;5063186;28;20970;-76
2022/05/24 00:52:46;;;;;;;6.05;3.67;;;;;;;17.98;59.42;94578.50;5063343;28;20233;-75
2022/05/24 00:55:15;;;;;;;3.20;3.00;;;;;;;18.01;59.43;94582.63;5061940;28;20315;-74
2022/05/24 00:57:47;;;;;;;2.95;2.67;;;;;;;18.20;58.71;94585.53;5061834;28;20219;-75
2022/05/24 01:00:18;;;;;;;3.35;2.85;;;;;;;18.19;58.61;94586.44;5062348;28;20212;-80
2022/05/24 01:02:45;;;;;;;6.47;3.22;;;;;;;18.27;58.52;94593.63;5062927;28;20252;-77
2022/05/24 01:05:14;;;;;;;4.78;3.03;;;;;;;18.25;58.10;94580.88;5063031;28;20207;-73
2022/05/24 01:07:41;;;;;;;3.30;2.70;;;;;;;18.11;59.08;94582.78;5061247;28;20197;-77
2022/05/24 01:10:12;;;;;;;3.13;2.92;;;;;;;18.28;58.58;94588.38;5062815;28;20204;-76
2022/05/24 01:12:43;;;;;;;3.63;2.58;;;;;;;18.17;58.79;94588.31;5062553;28;20247;-75
2022/05/24 01:15:11;;;;;;;3.85;2.80;;;;;;;18.13;59.08;94581.72;5061957;28;20268;-76
2022/05/24 01:17:40;;;;;;;4.72;2.75;;;;;;;18.12;58.83;94584.41;5061722;28;20699;-76
2022/05/24 01:20:09;;;;;;;4.97;2.90;;;;;;;17.93;59.76;94590.03;5062786;28;20585;-73
2022/05/24 01:23:13;;;;;;;2.47;2.28;;;;;;;17.80;60.07;94590.06;5062795;28;20210;-75
2022/05/24 01:25:52;;;;;;;5.35;2.33;;;;;;;17.85;60.26;94587.16;5062447;28;20691;-74
2022/05/24 01:28:25;;;;;;;3.05;2.47;;;;;;;17.78;60.65;94578.25;5062074;28;20205;-75
2022/05/24 01:30:52;;;;;;;2.60;2.50;;;;;;;17.82;60.66;94571.94;5062815;28;20193;-75
2022/05/24 01:36:13;;;;;;;6.93;2.58;;;;;;;17.53;61.96;94567.06;5062098;28;20264;-74
2022/05/24 01:38:45;;;;;;;6.20;2.90;;;;;;;17.40;62.51;94566.25;5062859;28;20690;-73
2022/05/24 01:41:18;;;;;;;5.82;2.50;;;;;;;17.25;63.30;94572.44;5062018;28;20293;-74
2022/05/24 01:43:49;;;;;;;4.55;2.70;;;;;;;17.32;63.00;94568.53;5062408;28;20205;-78
2022/05/24 01:46:19;;;;;;;3.28;2.97;;;;;;;17.28;63.66;94577.38;5061880;28;20290;-74
2022/05/24 01:48:50;;;;;;;2.70;2.50;;;;;;;17.58;62.79;94575.25;5061563;28;20741;-74
2022/05/24 01:51:22;;;;;;;3.03;2.60;;;;;;;17.68;62.56;94572.91;5061456;28;20288;-75
2022/05/24 01:53:53;;;;;;;3.30;3.00;;;;;;;17.47;63.26;94571.78;5062743;28;20314;-74
2022/05/24 01:56:25;;;;;;;3.08;2.92;;;;;;;17.31;64.32;94569.47;5061942;28;20802;-74
2022/05/24 01:58:57;;;;;;;5.90;3.15;;;;;;;17.42;64.29;94581.56;5062387;28;20265;-75
2022/05/24 02:01:35;;;;;;;4.25;3.95;;;;;;;17.52;64.35;94578.28;5062988;28;20254;-74
2022/05/24 02:04:02;;;;;;;4.13;3.65;;;;;;;17.83;63.37;94581.31;5062212;28;20243;-74
2022/05/24 02:06:30;;;;;;;3.83;3.42;;;;;;;17.94;63.04;94578.81;5061611;28;20298;-75
2022/05/24 02:08:57;;;;;;;7.97;3.33;;;;;;;17.61;64.33;94580.19;5061731;28;20321;-77
2022/05/24 02:11:27;;;;;;;5.60;3.45;;;;;;;17.58;64.84;94579.56;5061395;28;20194;-76
2022/05/24 02:14:02;;;;;;;3.60;2.97;;;;;;;17.62;64.85;94596.44;5062477;28;20217;-77
2022/05/24 02:16:33;;;;;;;3.53;3.25;;;;;;;17.85;64.24;94597.44;5062514;28;20321;-75
2022/05/24 02:19:00;;;;;;;4.32;3.30;;;;;;;17.90;64.16;94597.94;5061940;28;20205;-74
2022/05/24 02:21:27;;;;;;;9.75;3.60;;;;;;;17.75;64.80;94593.88;5062021;28;20228;-76
2022/05/24 02:23:54;;;;;;;4.65;3.20;;;;;;;17.79;65.28;94580.72;5062557;28;20218;-73
2022/05/24 02:26:23;;;;;;;7.05;3.53;;;;;;;17.66;65.38;94561.94;5060597;28;20777;-73
2022/05/24 02:28:52;;;;;;;4.47;4.07;;;;;;;17.63;65.93;94552.66;5062672;28;20233;-73
2022/05/24 02:31:22;;;;;;;5.90;3.65;;;;;;;17.35;66.77;94542.63;5061222;28;20198;-74
2022/05/24 02:33:49;;;;;;;7.55;3.63;;;;;;;17.41;67.12;94567.88;5062009;28;20307;-74
2022/05/24 02:36:18;;;;;;;7.13;3.33;;;;;;;17.28;67.90;94585.06;5061672;28;20325;-74
2022/05/24 02:38:45;;;;;;;6.80;4.03;;;;;;;17.23;68.07;94600.78;5061365;28;20194;-73
2022/05/24 02:41:29;;;;;;;7.38;4.20;;;;;;;17.37;67.55;94602.41;5061490;28;20198;-73
2022/05/24 02:43:57;;;;;;;6.05;3.63;;;;;;;17.48;67.03;94607.66;5062117;28;20202;-74
2022/05/24 02:46:26;;;;;;;8.27;3.72;;;;;;;17.18;68.34;94607.97;5062632;28;20255;-75
2022/05/24 02:48:53;;;;;;;8.00;4.07;;;;;;;17.18;68.30;94607.13;5061822;28;20706;-75
2022/05/24 02:51:20;;;;;;;5.22;3.45;;;;;;;17.17;68.31;94602.94;5060945;28;20202;-73
2022/05/24 02:53:47;;;;;;;3.70;3.03;;;;;;;17.23;67.95;94605.09;5063757;28;20745;-74
2022/05/24 02:56:15;;;;;;;3.85;3.20;;;;;;;17.05;68.76;94594.31;5064785;28;20993;-74
2022/05/24 02:58:42;;;;;;;5.38;3.33;;;;;;;16.97;69.11;94599.94;5064423;28;20263;-74
2022/05/24 03:01:19;;;;;;;5.57;3.40;;;;;;;17.17;68.28;94600.34;5065468;28;20259;-74
2022/05/24 03:03:48;;;;;;;4.95;3.00;;;;;;;17.11;68.49;94608.47;5063197;28;20208;-73
2022/05/24 03:06:15;;;;;;;3.13;2.92;;;;;;;16.98;68.99;94606.72;5063053;28;20208;-74
2022/05/24 03:11:26;;;;;;;3.83;3.53;;;;;;;17.28;67.63;94600.47;5064205;28;20209;-75
2022/05/24 03:16:36;;;;;;;6.72;3.33;;;;;;;17.48;67.31;94606.84;5064007;28;20232;-75
2022/05/24 03:19:05;;;;;;;5.90;3.15;;;;;;;17.32;67.19;94589.88;5063083;28;20277;-75
2022/05/24 03:21:32;;;;;;;6.07;3.70;;;;;;;17.53;66.94;94607.34;5062376;28;20406;-77
2022/05/24 03:23:59;;;;;;;12.73;4.50;;;;;;;17.64;66.66;94597.16;5063548;28;20597;-75
2022/05/24 03:26:26;;;;;;;5.38;3.60;;;;;;;17.51;66.85;94592.03;5062693;28;20256;-75
2022/05/24 03:28:53;;;;;;;3.97;3.50;;;;;;;17.54;66.97;94596.97;5063520;28;20247;-74
2022/05/24 03:31:20;;;;;;;9.48;4.75;;;;;;;17.78;66.24;94591.94;5062947;28;21157;-76
2022/05/24 03:33:46;;;;;;;12.52;4.53;;;;;;;17.84;65.90;94591.47;5063430;28;20272;-73
2022/05/24 03:36:14;;;;;;;6.20;3.78;;;;;;;17.65;66.46;94581.66;5063527;28;20350;-76
2022/05/24 03:38:41;;;;;;;4.18;3.83;;;;;;;17.74;66.43;94602.53;5065843;28;20208;-74
2022/05/24 03:41:08;;;;;;;5.15;4.13;;;;;;;17.85;66.16;94597.44;5064516;28;20198;-75
2022/05/24 03:43:35;;;;;;;7.50;3.78;;;;;;;18.08;65.16;94601.81;5065073;28;20221;-73
2022/05/24 03:46:04;;;;;;;6.45;3.92;;;;;;;17.88;66.30;94607.53;5063427;28;20272;-74
2022/05/24 03:48:31;;;;;;;4.05;3.60;;;;;;;17.90;65.70;94605.66;5063899;28;20651;-75
2022/05/24 03:50:58;;;;;;;3.55;3.33;;;;;;;17.75;66.00;94597.28;5064423;28;20202;-74
2022/05/24 03:53:27;;;;;;;5.50;4.13;;;;;;;17.41;67.50;94603.84;5065342;28;20266;-77
2022/05/24 03:55:54;;;;;;;4.72;4.15;;;;;;;17.29;68.04;94602.13;5063957;28;20266;-76
2022/05/24 03:58:21;;;;;;;11.10;4.40;;;;;;;17.34;67.84;94612.88;5064100;28;20588;-74
2022/05/24 04:00:48;;;;;;;8.77;3.72;;;;;;;17.05;68.74;94616.59;5062940;28;20202;-74
2022/05/24 04:03:15;;;;;;;13.85;4.68;;;;;;;17.05;68.95;94612.28;5062542;28;20290;-73
2022/05/24 04:05:42;;;;;;;8.43;3.83;;;;;;;17.03;69.07;94619.25;5063246;28;20259;-77
2022/05/24 04:08:09;;;;;;;5.47;4.22;;;;;;;17.10;69.28;94619.66;5063149;28;20202;-76
2022/05/24 04:10:38;;;;;;;9.45;4.05;;;;;;;17.39;67.30;94612.59;5063071;28;20198;-75
2022/05/24 04:13:05;;;;;;;3.55;3.25;;;;;;;17.62;66.80;94625.50;5063947;28;20201;-73
2022/05/24 04:15:32;;;;;;;5.25;4.00;;;;;;;17.61;66.90;94635.91;5061946;28;20228;-76
2022/05/24 04:17:59;;;;;;;7.30;4.10;;;;;;;17.56;67.21;94631.09;5064095;28;20554;-74
2022/05/24 04:20:27;;;;;;;7.25;3.10;;;;;;;17.46;67.45;94632.63;5064455;28;20407;-75
2022/05/24 04:22:55;;;;;;;5.10;4.57;;;;;;;17.46;67.79;94622.34;5062997;28;20226;-75
2022/05/24 04:25:23;;;;;;;6.13;4.50;;;;;;;17.64;66.88;94618.56;5063619;28;20292;-72
2022/05/24 04:27:51;;;;;;;8.35;3.92;;;;;;;18.08;65.56;94624.13;5063878;28;20247;-74
2022/05/24 04:30:19;;;;;;;8.48;3.88;;;;;;;18.28;64.45;94606.38;5063926;28;20226;-74
2022/05/24 04:32:46;;;;;;;13.52;4.57;;;;;;;18.20;64.87;94636.97;5064047;28;20217;-75
2022/05/24 04:35:13;;;;;;;4.80;4.03;;;;;;;18.31;64.79;94621.56;5063695;28;20255;-74
2022/05/24 04:37:40;;;;;;;5.95;3.92;;;;;;;18.36;64.46;94626.41;5063504;28;20240;-76
2022/05/24 04:40:08;;;;;;;7.65;4.22;;;;;;;18.60;63.92;94621.28;5063570;28;20648;-74
2022/05/24 04:42:34;;;;;;;6.55;4.57;;;;;;;18.75;63.25;94619.38;5063248;28;20281;-74
2022/05/24 04:45:06;;;;;;;5.22;4.10;;;;;;;18.86;62.91;94604.78;5062985;28;20665;-74
2022/05/24 04:47:34;;;;;;;3.85;3.55;;;;;;;19.09;61.98;94607.41;5062087;28;20224;-73
2022/05/24 04:50:04;;;;;;;11.77;5.60;;;;;;;19.69;60.47;94614.91;5063472;28;20291;-75
2022/05/24 04:52:32;;;;;;;4.70;4.13;;;;;;;19.94;59.45;94624.16;5062068;28;20226;-75
2022/05/24 04:55:00;;;;;;;6.45;4.57;;;;;;;19.92;59.17;94638.94;5063310;28;20309;-74
2022/05/24 04:57:27;;;;;;;4.13;3.83;;;;;;;20.02;58.98;94638.13;5062400;28;20229;-77
2022/05/24 04:59:53;;;;;;;4.40;3.88;;;;;;;20.39;58.25;94643.00;5063977;28;20286;-74
2022/05/24 05:02:22;;;;;;;5.25;4.75;;;;;;;20.54;57.53;94635.84;5063060;28;21198;-75
2022/05/24 05:04:49;;;;;;;6.65;4.32;;;;;;;20.07;58.77;94642.91;5062983;28;20194;-74
2022/05/24 05:07:19;;;;;;;4.85;4.45;;;;;;;20.15;58.72;94650.88;5062216;28;20221;-75
2022/05/24 05:09:46;;;;;;;8.23;4.38;;;;;;;20.91;56.85;94647.44;5062799;28;20729;-75
2022/05/24 05:12:13;;;;;;;4.90;3.80;;;;;;;21.42;55.41;94654.50;5062523;28;20745;-74
2022/05/24 05:14:41;;;;;;;5.40;4.10;;;;;;;22.54;51.74;94648.41;5061810;28;20197;-73
2022/05/24 05:17:08;;;;;;;7.90;3.90;;;;;;;22.49;50.63;94640.25;5062277;28;20306;-73
2022/05/24 05:19:37;;;;;;;8.15;3.38;;;;;;;21.85;52.24;94633.59;5063487;28;20208;-74
2022/05/24 05:22:05;;;;;;;11.88;4.57;;;;;;;22.06;52.39;94659.47;5062913;28;20707;-74
2022/05/24 05:24:33;;;;;;;9.95;3.80;;;;;;;21.23;54.44;94662.94;5062581;28;20209;-76
2022/05/24 05:27:00;;;;;;;5.63;3.42;;;;;;;21.05;55.55;94667.78;5062831;28;20287;-75
2022/05/24 05:32:17;;;;;;;4.35;3.85;;;;;;;21.12;55.14;94657.78;5063014;28;20579;-75
2022/05/24 05:34:46;;;;;;;5.60;4.10;;;;;;;21.69;53.21;94666.91;5062060;28;20199;-74
2022/05/24 05:37:12;;;;;;;7.93;3.88;;;;;;;22.46;51.25;94674.19;5061721;28;20237;-74
2022/05/24 05:39:39;;;;;;;7.18;4.07;;;;;;;23.88;48.01;94670.91;5062658;28;20639;-75
2022/05/24 05:42:07;;;;;;;4.60;3.25;;;;;;;26.19;43.57;94668.44;5063134;28;20248;-75
2022/05/24 05:44:33;;;;;;;9.95;3.28;;;;;;;27.80;39.81;94671.53;5061696;28;20194;-76
2022/05/24 05:47:00;;;;;;;10.07;3.65;;;;;;;28.98;37.28;94669.84;5061625;28;20262;-75
2022/05/24 05:49:27;;;;;;;4.85;3.38;;;;;;;28.30;38.04;94668.69;5062019;28;20271;-76
2022/05/24 05:51:55;;;;;;;7.55;3.53;;;;;;;28.40;37.60;94664.06;5062430;28;20271;-76
2022/05/24 05:54:23;;;;;;;4.18;3.45;;;;;;;29.16;36.11;94661.72;5063524;28;20614;-76
2022/05/24 05:56:50;;;;;;;7.22;4.10;;;;;;;30.00;34.76;94671.19;5062023;28;20282;-75
2022/05/24 05:59:17;;;;;;;8.20;4.03;;;;;;;29.45;35.60;94682.78;5061838;28;20623;-76
2022/05/24 06:01:44;;;;;;;3.25;3.03;;;;;;;30.01;34.92;94678.88;5061612;28;20252;-75
2022/05/24 06:04:11;;;;;;;5.13;3.17;;;;;;;30.25;34.56;94675.19;5064098;28;20202;-75
2022/05/24 06:06:41;;;;;;;5.05;3.50;;;;;;;29.77;35.00;94685.13;5062086;28;20301;-75
2022/05/24 06:09:09;;;;;;;6.20;3.45;;;;;;;29.50;35.53;94685.69;5064006;28;20685;-75
2022/05/24 06:11:36;;;;;;;4.32;3.53;;;;;;;30.28;34.53;94690.56;5062599;28;20253;-75
2022/05/24 06:14:02;;;;;;;5.60;3.40;;;;;;;30.13;34.08;94691.56;5061877;28;20259;-75
2022/05/24 06:16:29;;;;;;;7.93;3.35;;;;;;;30.11;34.68;94694.34;5061704;28;20240;-75
2022/05/24 06:18:56;;;;;;;4.35;3.63;;;;;;;30.00;35.06;94694.78;5062725;28;20296;-75
2022/05/24 06:21:23;;;;;;;3.95;3.65;;;;;;;29.89;34.50;94689.94;5062233;28;20230;-75
2022/05/24 06:23:50;;;;;;;4.13;3.58;;;;;;;29.00;35.93;94684.38;5063130;28;20205;-76
2022/05/24 06:26:20;;;;;;;8.70;3.63;;;;;;;29.38;36.14;94684.47;5062210;28;20200;-75
2022/05/24 06:28:47;;;;;;;7.82;3.95;;;;;;;29.33;35.85;94678.94;5065697;28;20206;-76
2022/05/24 06:31:14;;;;;;;12.52;9.30;;;;;;;29.00;37.03;94676.53;5066187;28;20702;-75
2022/05/24 06:33:40;;;;;;;10.63;9.35;;;;;;;29.56;35.58;94658.81;5066450;28;20214;-77
2022/05/24 06:36:07;;;;;;;11.90;5.38;;;;;;;29.28;35.87;94668.97;5065959;28;20202;-76
2022/05/24 06:38:36;;;;;;;11.77;8.10;;;;;;;29.08;36.22;94667.81;5065733;28;20324;-75
2022/05/24 06:41:04;;;;;;;8.55;4.10;;;;;;;28.50;37.10;94665.66;5064773;28;20229;-75
2022/05/24 06:43:32;;;;;;;10.20;6.93;;;;;;;28.47;38.14;94665.97;5065674;28;20619;-76
2022/05/24 06:45:58;;;;;;;5.25;4.85;;;;;;;28.46;37.31;94664.38;5065418;28;20202;-75
2022/05/24 06:48:25;;;;;;;16.10;12.30;;;;;;;28.73;37.06;94666.50;5065539;28;20247;-75
2022/05/24 06:50:52;;;;;;;11.55;5.45;;;;;;;28.57;37.33;94666.59;5065549;28;20305;-74
2022/05/24 06:53:19;;;;;;;4.68;4.07;;;;;;;28.88;36.62;94659.63;5066406;28;20208;-75
2022/05/24 06:55:45;;;;;;;5.55;4.60;;;;;;;29.12;36.55;94661.25;5064433;28;20259;-75
2022/05/24 06:58:12;;;;;;;5.47;4.97;;;;;;;28.60;37.94;94661.84;5065068;28;20225;-74
2022/05/24 07:03:24;;;;;;;9.15;5.22;;;;;;;26.75;40.92;94657.41;5069049;28;20251;-75
2022/05/24 07:05:51;;;;;;;8.27;6.80;;;;;;;26.53;41.93;94654.59;5064002;28;21818;-75
2022/05/24 07:08:18;;;;;;;6.30;5.70;;;;;;;26.62;41.18;94644.03;5064735;28;20677;-70
2022/05/24 07:10:45;;;;;;;8.50;6.35;;;;;;;26.23;42.03;94651.50;5065013;28;20678;-74
2022/05/24 07:13:15;;;;;;;9.50;5.15;;;;;;;25.74;42.84;94648.66;5065340;28;20284;-74
2022/05/24 07:15:44;;;;;;;7.65;5.13;;;;;;;26.00;42.57;94664.25;5063788;28;20299;-75
2022/05/24 07:18:11;;;;;;;7.53;5.05;;;;;;;26.56;41.04;94664.69;5065762;28;20241;-76
2022/05/24 07:20:37;;;;;;;12.77;7.65;;;;;;;26.85;41.02;94654.69;5066658;28;20229;-76
2022/05/24 07:23:10;;;;;;;6.88;4.53;;;;;;;27.06;40.99;94662.88;5064942;28;20267;-76
2022/05/24 07:25:37;;;;;;;6.70;4.55;;;;;;;26.92;41.38;94671.31;5065096;28;20631;-75
2022/05/24 07:28:05;;;;;;;8.82;4.75;;;;;;;26.74;41.82;94658.38;5063556;28;20228;-76
2022/05/24 07:30:32;;;;;;;7.60;4.40;;;;;;;26.72;41.95;94655.16;5063161;28;20243;-75
2022/05/24 07:33:01;;;;;;;4.65;4.25;;;;;;;26.35;41.62;94649.47;5065096;28;20222;-75
2022/05/24 07:35:28;;;;;;;5.18;4.78;;;;;;;26.07;42.80;94656.66;5064120;28;20202;-76
2022/05/24 07:37:54;;;;;;;4.88;4.45;;;;;;;25.87;44.08;94665.66;5063931;28;20695;-76
2022/05/24 07:45:54;;;;;;;5.85;3.90;;;;;;;26.25;42.79;94649.56;5064068;28;20279;-77
2022/05/24 07:48:23;;;;;;;4.82;4.45;;;;;;;26.09;43.33;94657.31;5065231;28;20229;-75
2022/05/24 07:50:50;;;;;;;7.50;4.13;;;;;;;25.94;44.10;94658.88;5063518;28;20198;-77
2022/05/24 07:53:17;;;;;;;4.85;4.40;;;;;;;25.99;43.39;94656.59;5064709;28;20198;-76
2022/05/24 07:55:44;;;;;;;5.32;4.13;;;;;;;26.06;43.40;94660.22;5063528;28;20832;-76
2022/05/24 07:58:12;;;;;;;5.50;3.92;;;;;;;26.54;43.04;94637.97;5065027;28;20261;-76
2022/05/24 08:00:39;;;;;;;8.25;3.90;;;;;;;26.33;43.40;94638.41;5065427;28;20209;-76
2022/05/24 08:03:07;;;;;;;6.80;3.97;;;;;;;26.68;42.60;94629.56;5064629;28;20267;-75
2022/05/24 08:05:36;;;;;;;6.13;4.28;;;;;;;25.71;44.17;94643.78;5064385;28;20212;-77
2022/05/24 08:08:03;;;;;;;7.93;3.88;;;;;;;25.43;44.72;94652.66;5063544;28;20243;-78
2022/05/24 08:10:31;;;;;;;6.80;4.40;;;;;;;25.65;44.37;94641.78;5064254;28;21089;-78
2022/05/24 08:12:58;;;;;;;6.30;3.78;;;;;;;25.86;44.36;94659.63;5062054;28;20900;-76
2022/05/24 08:15:26;;;;;;;4.25;3.90;;;;;;;25.98;43.69;94653.22;5064264;28;20278;-75
2022/05/24 08:17:53;;;;;;;11.50;4.13;;;;;;;26.09;45.19;94644.28;5059853;28;20234;-75
2022/05/24 08:20:20;;;;;;;4.70;4.22;;;;;;;26.37;43.92;94653.56;5063187;28;20226;-74
2022/05/24 08:22:49;;;;;;;8.77;3.90;;;;;;;26.49;43.99;94645.44;5062160;28;20206;-74
2022/05/24 08:25:16;;;;;;;11.40;5.93;;;;;;;27.17;42.78;94650.50;5062916;28;20201;-75
2022/05/24 08:27:43;;;;;;;4.35;3.95;;;;;;;27.05;42.48;94643.00;5061923;28;20198;-75
2022/05/24 08:30:12;;;;;;;7.30;4.35;;;;;;;27.16;42.42;94638.44;5062436;28;20291;-74
2022/05/24 08:32:40;;;;;;;8.95;4.22;;;;;;;27.21;42.23;94636.19;5063870;28;20228;-75
2022/05/24 08:35:08;;;;;;;8.10;4.75;;;;;;;26.88;42.38;94636.09;5060416;28;20225;-74
2022/05/24 08:37:35;;;;;;;18.25;6.38;;;;;;;27.09;42.74;94631.28;5061294;28;20314;-76
2022/05/24 08:40:04;;;;;;;28.10;6.97;;;;;;;27.36;42.49;94631.91;5059344;28;20209;-75
2022/05/24 08:42:41;;;;;;;6.45;3.95;;;;;;;27.57;42.22;94631.41;5062279;28;20864;-77
2022/05/24 08:50:51;;;;;;;5.25;4.63;;;;;;;26.62;43.55;94645.81;5060167;28;20315;-73
2022/05/24 08:53:26;;;;;;;9.00;4.60;;;;;;;26.56;43.68;94641.25;5060438;28;20218;-76
2022/05/24 08:55:55;;;;;;;5.82;4.93;;;;;;;26.41;44.23;94643.66;5062419;28;20194;-74
2022/05/24 08:58:30;;;;;;;8.15;5.20;;;;;;;26.47;44.05;94648.25;5061063;28;20257;-77
2022/05/24 09:00:58;;;;;;;11.35;4.90;;;;;;;26.85;43.20;94649.47;5062056;28;20201;-75
2022/05/24 09:03:26;;;;;;;10.18;4.57;;;;;;;27.10;43.53;94650.34;5061593;28;20204;-78
2022/05/24 09:05:58;;;;;;;4.53;3.97;;;;;;;27.36;42.69;94644.97;5061696;28;20202;-74
2022/05/24 09:08:30;;;;;;;9.02;4.47;;;;;;;27.49;42.78;94641.84;5060400;28;20291;-74
2022/05/24 09:11:08;;;;;;;8.27;4.97;;;;;;;26.98;42.88;94635.97;5060993;28;20688;-76
2022/05/24 09:14:10;;;;;;;5.18;4.70;;;;;;;27.14;42.44;94629.97;5059302;28;20205;-76
2022/05/24 09:16:47;;;;;;;6.43;5.22;;;;;;;27.14;43.86;94622.97;5061856;28;20928;-75
2022/05/24 09:19:20;;;;;;;6.20;4.82;;;;;;;27.55;43.13;94621.13;5060758;28;20243;-75
2022/05/24 09:21:51;;;;;;;5.47;4.90;;;;;;;27.98;42.84;94613.88;5061505;28;20229;-76
2022/05/24 09:24:27;;;;;;;7.30;5.13;;;;;;;27.57;42.07;94621.78;5061529;28;20229;-72
2022/05/24 09:27:07;;;;;;;11.10;6.72;;;;;;;27.03;43.87;94613.66;5061822;28;20672;-71
2022/05/24 09:29:35;;;;;;;7.38;6.63;;;;;;;26.59;43.91;94610.47;5061199;28;20594;-73
2022/05/24 09:32:08;;;;;;;14.13;8.73;;;;;;;26.80;43.63;94609.19;5061216;28;20213;-72
2022/05/24 09:34:37;;;;;;;8.52;5.70;;;;;;;27.25;44.00;94612.19;5061192;28;20214;-72
2022/05/24 09:37:07;;;;;;;6.38;5.78;;;;;;;27.33;43.15;94619.19;5060758;28;20866;-72
2022/05/24 09:39:37;;;;;;;5.53;5.15;;;;;;;27.15;43.09;94627.19;5061531;28;20220;-72
2022/05/24 09:42:10;;;;;;;8.13;5.32;;;;;;;27.48;43.38;94627.97;5060519;28;20201;-72
2022/05/24 09:44:47;;;;;;;8.82;5.88;;;;;;;27.66;43.03;94617.41;5060621;28;20206;-71
2022/05/24 09:47:23;;;;;;;8.70;6.85;;;;;;;27.63;42.71;94615.13;5060825;28;20300;-72
2022/05/24 09:49:50;;;;;;;9.82;5.18;;;;;;;27.64;43.64;94614.16;5060277;28;20232;-72
2022/05/24 09:52:17;;;;;;;10.52;7.18;;;;;;;27.54;42.51;94616.88;5061324;28;20230;-72
2022/05/24 09:54:55;;;;;;;6.00;5.10;;;;;;;27.39;43.28;94613.34;5060454;28;20250;-72
2022/05/24 09:57:26;;;;;;;6.05;5.50;;;;;;;27.44;43.63;94598.81;5059722;28;20896;-72
2022/05/24 10:00:03;;;;;;;6.20;5.60;;;;;;;27.89;42.85;94604.47;5061706;28;21470;-73
2022/05/24 10:02:33;;;;;;;10.13;5.65;;;;;;;28.01;42.82;94598.69;5061513;28;20607;-72
2022/05/24 10:05:02;;;;;;;9.73;8.48;;;;;;;27.77;42.01;94598.75;5064295;28;21390;-73
2022/05/24 10:07:31;;;;;;;7.70;6.25;;;;;;;27.74;42.83;94612.97;5063837;28;20566;-72
2022/05/24 10:10:07;;;;;;;7.03;5.53;;;;;;;28.02;42.18;94595.09;5061150;28;21032;-72
2022/05/24 10:12:47;;;;;;;7.50;6.10;;;;;;;28.36;41.70;94597.44;5064915;28;20224;-72
2022/05/24 10:15:22;;;;;;;7.57;5.80;;;;;;;27.67;42.46;94601.56;5063909;28;20668;-72
2022/05/24 10:18:03;;;;;;;8.52;5.47;;;;;;;27.51;43.32;94598.94;5064848;28;20239;-73
2022/05/24 10:20:39;;;;;;;7.78;5.70;;;;;;;27.98;42.59;94603.44;5063857;28;20236;-72
2022/05/24 10:23:11;;;;;;;5.53;4.78;;;;;;;27.66;43.50;94599.94;5065126;28;20202;-72
2022/05/24 10:25:44;;;;;;;7.78;6.43;;;;;;;27.73;42.91;94580.00;5065240;28;20629;-72
2022/05/24 10:28:28;;;;;;;7.57;5.72;;;;;;;27.86;43.45;94589.13;5063542;28;20357;-72
2022/05/24 10:31:01;;;;;;;7.18;5.53;;;;;;;27.56;43.16;94582.78;5063870;28;20885;-72
2022/05/24 10:39:35;;;;;;;7.15;5.35;;;;;;;27.25;43.73;94574.84;5064438;28;20453;-72
2022/05/24 10:42:14;;;;;;;10.52;6.20;;;;;;;27.17;44.42;94578.28;5062383;28;20241;-72
2022/05/24 10:44:47;;;;;;;9.18;5.85;;;;;;;27.32;44.17;94575.81;5065301;28;20209;-74
2022/05/24 10:47:25;;;;;;;8.10;5.93;;;;;;;27.72;43.93;94565.31;5060624;28;20202;-70
2022/05/24 10:49:56;;;;;;;9.82;5.70;;;;;;;27.86;42.34;94563.00;5062869;28;20209;-72
2022/05/24 10:52:34;;;;;;;6.25;5.60;;;;;;;27.86;43.11;94568.22;5062949;28;20763;-71
2022/05/24 10:55:06;;;;;;;8.52;6.90;;;;;;;27.99;43.57;94573.72;5064550;28;20205;-71
2022/05/24 10:57:39;;;;;;;12.88;6.80;;;;;;;27.84;43.13;94560.56;5061323;28;20683;-72
2022/05/24 11:00:13;;;;;;;14.77;8.48;;;;;;;27.58;43.18;94576.47;5064304;28;20262;-71
2022/05/24 11:02:45;;;;;;;10.77;6.00;;;;;;;27.50;43.83;94573.00;5062846;28;20189;-72
2022/05/24 11:05:20;;;;;;;12.98;8.57;;;;;;;27.80;43.19;94559.25;5062330;28;20686;-72
2022/05/24 11:07:49;;;;;;;108.57;71.30;;;;;;;28.20;43.83;94555.72;5061708;28;20226;-70
2022/05/24 11:10:25;;;;;;;14.55;11.20;;;;;;;28.38;43.76;94545.81;5062926;28;20289;-73
2022/05/24 11:12:55;;;;;;;16.73;7.38;;;;;;;28.13;42.59;94549.50;5063826;28;20197;-71
2022/05/24 11:15:32;;;;;;;7.60;6.88;;;;;;;27.70;44.13;94546.44;5064084;28;21076;-74
2022/05/24 11:18:00;;;;;;;18.65;6.75;;;;;;;27.85;43.87;94545.72;5064578;28;20318;-72
2022/05/24 11:20:37;;;;;;;10.10;6.70;;;;;;;27.71;43.40;94540.22;5063342;28;21050;-72
2022/05/24 11:23:11;;;;;;;7.80;6.95;;;;;;;28.01;43.16;94529.97;5063668;28;20197;-74
2022/05/24 11:25:44;;;;;;;11.65;10.65;;;;;;;28.13;42.79;94539.06;5061341;28;20668;-72
2022/05/24 11:28:23;;;;;;;16.45;12.98;;;;;;;28.30;42.83;94527.56;5063466;28;20282;-72
2022/05/24 11:30:53;;;;;;;10.23;6.60;;;;;;;28.41;42.17;94527.19;5061914;28;20622;-74
2022/05/24 11:33:34;;;;;;;8.15;6.65;;;;;;;27.90;42.75;94517.28;5062621;28;20225;-73
2022/05/24 11:36:23;;;;;;;8.45;7.65;;;;;;;28.35;43.23;94520.03;5064609;28;20202;-73
2022/05/24 11:38:51;;;;;;;23.05;16.35;;;;;;;28.76;42.36;94514.50;5063348;28;21030;-74
2022/05/24 11:41:30;;;;;;;7.75;7.05;;;;;;;29.10;41.77;94501.81;5062258;28;20194;-74
2022/05/24 11:44:03;;;;;;;7.63;6.65;;;;;;;29.01;41.71;94497.66;5061851;28;20201;-73
2022/05/24 11:46:46;;;;;;;13.13;7.43;;;;;;;28.60;42.48;94493.72;5061842;28;20202;-73
2022/05/24 11:49:51;;;;;;;9.50;6.05;;;;;;;28.60;42.07;94491.09;5060363;28;20687;-74
2022/05/24 11:52:42;;;;;;;9.70;7.13;;;;;;;28.51;42.75;94489.53;5063021;28;20197;-74
2022/05/24 11:55:09;;;;;;;12.85;7.30;;;;;;;28.09;42.54;94490.75;5062464;28;20217;-73
2022/05/24 11:57:41;;;;;;;9.32;6.80;;;;;;;27.87;43.71;94481.06;5063567;28;20580;-73
2022/05/24 12:00:11;;;;;;;11.95;7.68;;;;;;;28.11;43.18;94468.69;5062505;28;20230;-73
2022/05/24 12:08:36;;;;;;;10.27;6.97;;;;;;;28.20;43.34;94464.28;5061190;28;20220;-72
2022/05/24 12:11:18;;;;;;;9.50;6.93;;;;;;;28.04;43.62;94466.94;5061547;28;20233;-72
2022/05/24 12:13:57;;;;;;;15.07;7.30;;;;;;;28.38;43.64;94456.97;5062076;28;20286;-72
2022/05/24 12:16:37;;;;;;;13.10;7.10;;;;;;;28.33;42.84;94461.06;5063579;28;20211;-73
2022/05/24 12:19:09;;;;;;;10.38;6.60;;;;;;;28.49;43.08;94453.09;5061481;28;20580;-71
2022/05/24 12:21:42;;;;;;;14.68;7.30;;;;;;;28.75;43.15;94465.81;5062157;28;20229;-73